createdAt,value
2023-05-22T00:01:46.768Z,97668.00
2023-05-22T00:04:21.196Z,97662.00
2023-05-22T00:06:49.148Z,97665.00
2023-05-22T00:09:17.017Z,97670.00
2023-05-22T00:11:44.823Z,97662.00
2023-05-22T00:14:13.680Z,97668.00
2023-05-22T00:16:43.214Z,97663.00
2023-05-22T00:19:16.571Z,97659.00
2023-05-22T00:21:44.787Z,97653.00
2023-05-22T00:24:13.282Z,97662.00
2023-05-22T00:26:40.968Z,97652.00
2023-05-22T00:29:09.400Z,97656.00
2023-05-22T00:31:37.087Z,97655.00
2023-05-22T00:34:06.094Z,97647.00
2023-05-22T00:36:33.817Z,97645.00
2023-05-22T00:39:01.483Z,97644.00
2023-05-22T00:41:29.491Z,97644.00
2023-05-22T00:43:57.168Z,97645.00
2023-05-22T00:46:24.871Z,97646.00
2023-05-22T00:48:53.493Z,97639.00
2023-05-22T00:51:23.341Z,97646.00
2023-05-22T00:53:51.750Z,97643.00
2023-05-22T00:56:20.073Z,97646.00
2023-05-22T00:58:47.893Z,97642.00
2023-05-22T01:01:16.163Z,97633.00
2023-05-22T01:03:45.150Z,97639.00
2023-05-22T01:06:14.188Z,97643.00
2023-05-22T01:08:43.526Z,97649.00
2023-05-22T01:11:16.297Z,97644.00
2023-05-22T01:13:50.427Z,97644.00
2023-05-22T01:16:24.970Z,97645.00
2023-05-22T01:19:00.868Z,97648.00
2023-05-22T01:21:35.182Z,97650.00
2023-05-22T01:24:33.603Z,97638.00
2023-05-22T01:27:42.944Z,97643.00
2023-05-22T01:30:47.056Z,97654.00
2023-05-22T01:33:17.239Z,97648.00
2023-05-22T01:35:47.429Z,97647.00
2023-05-22T01:38:16.508Z,97650.00
2023-05-22T01:40:45.638Z,97650.00
2023-05-22T01:43:14.281Z,97649.00
2023-05-22T01:45:43.342Z,97650.00
2023-05-22T01:48:12.390Z,97643.00
2023-05-22T01:50:40.906Z,97657.00
2023-05-22T01:53:16.561Z,97657.00
2023-05-22T01:55:55.873Z,97650.00
2023-05-22T01:58:32.546Z,97664.00
2023-05-22T02:01:03.586Z,97658.00
2023-05-22T02:03:33.334Z,97653.00
2023-05-22T02:06:05.956Z,97660.00
2023-05-22T02:08:34.238Z,97652.00
2023-05-22T02:11:04.153Z,97656.00
2023-05-22T02:13:32.155Z,97658.00
2023-05-22T02:16:01.995Z,97655.00
2023-05-22T02:18:31.086Z,97659.00
2023-05-22T02:20:59.067Z,97653.00
2023-05-22T02:23:29.530Z,97647.00
2023-05-22T02:25:57.516Z,97650.00
2023-05-22T02:28:25.205Z,97647.00
2023-05-22T02:30:52.959Z,97654.00
2023-05-22T02:33:22.124Z,97647.00
2023-05-22T02:35:49.773Z,97644.00
2023-05-22T02:38:17.438Z,97644.00
2023-05-22T02:40:45.374Z,97641.00
2023-05-22T02:43:13.021Z,97645.00
2023-05-22T02:45:40.667Z,97641.00
2023-05-22T02:48:08.376Z,97644.00
2023-05-22T02:50:37.555Z,97645.00
2023-05-22T02:53:05.423Z,97649.00
2023-05-22T02:55:33.088Z,97643.00
2023-05-22T02:58:00.739Z,97645.00
2023-05-22T03:00:28.406Z,97647.00
2023-05-22T03:02:56.212Z,97645.00
2023-05-22T03:05:23.968Z,97652.00
2023-05-22T03:07:53.276Z,97651.00
2023-05-22T03:10:21.149Z,97655.00
2023-05-22T03:12:48.809Z,97650.00
2023-05-22T03:15:16.897Z,97654.00
2023-05-22T03:17:44.748Z,97654.00
2023-05-22T03:20:17.066Z,97648.00
2023-05-22T03:22:45.091Z,97655.00
2023-05-22T03:25:14.126Z,97659.00
2023-05-22T03:27:41.990Z,97654.00
2023-05-22T03:30:10.141Z,97651.00
2023-05-22T03:32:38.396Z,97651.00
2023-05-22T03:35:07.247Z,97653.00
2023-05-22T03:37:34.946Z,97652.00
2023-05-22T03:40:02.618Z,97653.00
2023-05-22T03:42:31.616Z,97647.00
2023-05-22T03:44:59.267Z,97644.00
2023-05-22T03:47:26.982Z,97644.00
2023-05-22T03:49:54.695Z,97652.00
2023-05-22T03:52:23.090Z,97646.00
2023-05-22T03:54:50.730Z,97643.00
2023-05-22T03:57:20.014Z,97644.00
2023-05-22T03:59:49.136Z,97650.00
2023-05-22T04:02:17.393Z,97648.00
2023-05-22T04:04:46.479Z,97649.00
2023-05-22T04:07:14.287Z,97654.00
2023-05-22T04:09:41.962Z,97655.00
2023-05-22T04:12:10.020Z,97663.00
2023-05-22T04:14:37.686Z,97657.00
2023-05-22T04:17:06.791Z,97662.00
2023-05-22T04:19:34.613Z,97664.00
2023-05-22T04:22:02.341Z,97667.00
2023-05-22T04:24:29.991Z,97668.00
2023-05-22T04:27:00.301Z,97667.00
2023-05-22T04:29:28.552Z,97667.00
2023-05-22T04:31:56.213Z,97664.00
2023-05-22T04:34:25.575Z,97670.00
2023-05-22T04:36:53.242Z,97672.00
2023-05-22T04:39:20.979Z,97666.00
2023-05-22T04:41:49.083Z,97666.00
2023-05-22T04:44:16.975Z,97669.00
2023-05-22T04:46:44.752Z,97673.00
2023-05-22T04:49:12.452Z,97665.00
2023-05-22T04:51:41.449Z,97660.00
2023-05-22T04:54:09.146Z,97673.00
2023-05-22T04:56:37.518Z,97671.00
2023-05-22T04:59:09.252Z,97674.00
2023-05-22T05:01:37.876Z,97670.00
2023-05-22T05:04:06.114Z,97667.00
2023-05-22T05:06:34.729Z,97669.00
2023-05-22T05:09:03.943Z,97674.00
2023-05-22T05:11:31.596Z,97675.00
2023-05-22T05:13:59.301Z,97668.00
2023-05-22T05:16:27.201Z,97672.00
2023-05-22T05:18:55.639Z,97674.00
2023-05-22T05:21:23.428Z,97668.00
2023-05-22T05:23:52.001Z,97672.00
2023-05-22T05:26:24.018Z,97667.00
2023-05-22T05:28:52.362Z,97668.00
2023-05-22T05:31:20.361Z,97670.00
2023-05-22T05:33:48.868Z,97668.00
2023-05-22T05:36:17.164Z,97672.00
2023-05-22T05:38:44.799Z,97671.00
2023-05-22T05:41:12.495Z,97671.00
2023-05-22T05:43:41.523Z,97670.00
2023-05-22T05:46:09.305Z,97678.00
2023-05-22T05:48:37.037Z,97669.00
2023-05-22T05:51:05.068Z,97670.00
2023-05-22T05:53:33.070Z,97674.00
2023-05-22T05:56:00.836Z,97671.00
2023-05-22T05:58:28.519Z,97678.00
2023-05-22T06:00:57.620Z,97678.00
2023-05-22T06:03:26.099Z,97676.00
2023-05-22T06:05:55.758Z,97679.00
2023-05-22T06:08:23.587Z,97680.00
2023-05-22T06:10:51.601Z,97678.00
2023-05-22T06:13:19.278Z,97685.00
2023-05-22T06:15:47.188Z,97682.00
2023-05-22T06:18:17.282Z,97681.00
2023-05-22T06:20:44.970Z,97686.00
2023-05-22T06:23:12.647Z,97689.00
2023-05-22T06:25:40.715Z,97682.00
2023-05-22T06:28:08.409Z,97692.00
2023-05-22T06:30:40.031Z,97686.00
2023-05-22T06:33:09.031Z,97683.00
2023-05-22T06:35:38.162Z,97685.00
2023-05-22T06:38:05.890Z,97682.00
2023-05-22T06:40:33.524Z,97679.00
2023-05-22T06:43:02.904Z,97678.00
2023-05-22T06:45:30.584Z,97678.00
2023-05-22T06:47:58.272Z,97681.00
2023-05-22T06:50:26.029Z,97679.00
2023-05-22T06:52:55.224Z,97680.00
2023-05-22T06:55:22.964Z,97682.00
2023-05-22T06:57:50.970Z,97676.00
2023-05-22T07:00:20.956Z,97677.00
2023-05-22T07:02:49.478Z,97685.00
2023-05-22T07:05:17.315Z,97683.00
2023-05-22T07:07:45.144Z,97681.00
2023-05-22T07:10:14.737Z,97684.00
2023-05-22T07:12:42.405Z,97686.00
2023-05-22T07:15:12.234Z,97681.00
2023-05-22T07:17:41.727Z,97680.00
2023-05-22T07:20:10.672Z,97677.00
2023-05-22T07:22:38.430Z,97673.00
2023-05-22T07:25:06.922Z,97676.00
2023-05-22T07:27:36.048Z,97676.00
2023-05-22T07:30:03.904Z,97685.00
2023-05-22T07:32:31.631Z,97678.00
2023-05-22T07:34:59.335Z,97676.00
2023-05-22T07:37:27.023Z,97676.00
2023-05-22T07:39:54.718Z,97674.00
2023-05-22T07:42:23.618Z,97674.00
2023-05-22T07:44:52.860Z,97668.00
2023-05-22T07:47:20.589Z,97673.00
2023-05-22T07:49:48.279Z,97673.00
2023-05-22T07:52:16.027Z,97671.00
2023-05-22T07:54:45.239Z,97678.00
2023-05-22T07:57:13.515Z,97668.00
2023-05-22T07:59:43.672Z,97666.00
2023-05-22T08:02:12.747Z,97671.00
2023-05-22T08:04:40.577Z,97671.00
2023-05-22T08:07:08.345Z,97667.00
2023-05-22T08:09:35.994Z,97666.00
2023-05-22T08:12:03.740Z,97671.00
2023-05-22T08:14:31.639Z,97670.00
2023-05-22T08:17:00.318Z,97666.00
2023-05-22T08:19:29.492Z,97665.00
2023-05-22T08:21:58.474Z,97666.00
2023-05-22T08:24:28.426Z,97665.00
2023-05-22T08:26:58.214Z,97666.00
2023-05-22T08:29:26.003Z,97663.00
2023-05-22T08:31:54.130Z,97666.00
2023-05-22T08:34:21.995Z,97669.00
2023-05-22T08:36:51.051Z,97662.00
2023-05-22T08:39:19.311Z,97662.00
2023-05-22T08:41:47.677Z,97663.00
2023-05-22T08:44:15.521Z,97654.00
2023-05-22T08:46:44.187Z,97651.00
2023-05-22T08:49:12.246Z,97656.00
2023-05-22T08:51:42.218Z,97653.00
2023-05-22T08:54:11.239Z,97653.00
2023-05-22T08:56:49.389Z,97653.00
2023-05-22T08:59:24.430Z,97646.00
2023-05-22T09:01:52.790Z,97652.00
2023-05-22T09:04:23.695Z,97645.00
2023-05-22T09:06:51.593Z,97652.00
2023-05-22T09:09:21.219Z,97649.00
2023-05-22T09:11:49.008Z,97646.00
2023-05-22T09:14:16.968Z,97648.00
2023-05-22T09:16:46.630Z,97641.00
2023-05-22T09:19:15.056Z,97640.00
2023-05-22T09:21:44.379Z,97636.00
2023-05-22T09:24:12.401Z,97641.00
2023-05-22T09:26:41.890Z,97640.00
2023-05-22T09:29:09.733Z,97634.00
2023-05-22T09:31:42.211Z,97635.00
2023-05-22T09:34:10.755Z,97634.00
2023-05-22T09:36:38.510Z,97630.00
2023-05-22T09:39:06.458Z,97628.00
2023-05-22T09:41:36.552Z,97635.00
2023-05-22T09:44:13.802Z,97630.00
2023-05-22T09:46:42.542Z,97624.00
2023-05-22T09:49:11.112Z,97628.00
2023-05-22T09:51:42.894Z,97626.00
2023-05-22T09:54:12.322Z,97624.00
2023-05-22T09:56:41.999Z,97622.00
2023-05-22T09:59:13.875Z,97613.00
2023-05-22T10:01:42.644Z,97612.00
2023-05-22T10:04:14.435Z,97609.00
2023-05-22T10:06:43.756Z,97608.00
2023-05-22T10:09:19.265Z,97605.00
2023-05-22T10:11:48.488Z,97601.00
2023-05-22T10:14:18.052Z,97602.00
2023-05-22T10:16:45.942Z,97606.00
2023-05-22T10:19:14.156Z,97595.00
2023-05-22T10:21:42.973Z,97600.00
2023-05-22T10:24:11.400Z,97589.00
2023-05-22T10:26:40.099Z,97592.00
2023-05-22T10:29:12.533Z,97594.00
2023-05-22T10:31:48.514Z,97600.00
2023-05-22T10:34:23.839Z,97607.00
2023-05-22T10:37:13.145Z,97597.00
2023-05-22T10:39:55.433Z,97596.00
2023-05-22T10:42:23.175Z,97594.00
2023-05-22T10:44:51.052Z,97594.00
2023-05-22T10:47:20.970Z,97587.00
2023-05-22T10:49:50.728Z,97598.00
2023-05-22T10:52:21.868Z,97589.00
2023-05-22T10:54:53.604Z,97587.00
2023-05-22T10:57:25.064Z,97585.00
2023-05-22T11:00:07.404Z,97586.00
2023-05-22T11:02:40.366Z,97584.00
2023-05-22T11:05:36.528Z,97586.00
2023-05-22T11:08:29.014Z,97585.00
2023-05-22T11:10:59.077Z,97586.00
2023-05-22T11:13:29.333Z,97589.00
2023-05-22T11:15:58.253Z,97589.00
2023-05-22T11:18:29.774Z,97583.00
2023-05-22T11:21:00.598Z,97583.00
2023-05-22T11:23:28.552Z,97583.00
2023-05-22T11:25:56.302Z,97585.00
2023-05-22T11:28:24.081Z,97583.00
2023-05-22T11:30:52.979Z,97577.00
2023-05-22T11:33:20.824Z,97576.00
2023-05-22T11:35:51.763Z,97571.00
2023-05-22T11:38:20.284Z,97571.00
2023-05-22T11:40:53.177Z,97566.00
2023-05-22T11:43:29.864Z,97556.00
2023-05-22T11:46:02.134Z,97554.00
2023-05-22T11:48:30.268Z,97551.00
2023-05-22T11:51:00.037Z,97552.00
2023-05-22T11:53:27.763Z,97552.00
2023-05-22T11:55:55.569Z,97555.00
2023-05-22T11:58:28.075Z,97550.00
2023-05-22T12:00:59.089Z,97556.00
2023-05-22T12:03:26.843Z,97552.00
2023-05-22T12:05:55.303Z,97545.00
2023-05-22T12:08:24.847Z,97546.00
2023-05-22T12:10:53.717Z,97544.00
2023-05-22T12:13:26.183Z,97547.00
2023-05-22T12:15:54.873Z,97541.00
2023-05-22T12:18:22.705Z,97548.00
2023-05-22T12:20:54.354Z,97542.00
2023-05-22T12:23:24.934Z,97536.00
2023-05-22T12:26:01.485Z,97540.00
2023-05-22T12:28:29.261Z,97543.00
2023-05-22T12:30:57.176Z,97540.00
2023-05-22T12:33:29.034Z,97542.00
2023-05-22T12:35:58.498Z,97529.00
2023-05-22T12:38:28.482Z,97529.00
2023-05-22T12:40:56.688Z,97534.00
2023-05-22T12:43:25.392Z,97535.00
2023-05-22T12:45:53.111Z,97531.00
2023-05-22T12:48:20.812Z,97533.00
2023-05-22T12:50:48.667Z,97532.00
2023-05-22T12:53:16.624Z,97538.00
2023-05-22T12:55:45.655Z,97529.00
2023-05-22T12:58:13.406Z,97521.00
2023-05-22T13:00:41.322Z,97527.00
2023-05-22T13:03:09.392Z,97526.00
2023-05-22T13:05:37.134Z,97520.00
2023-05-22T13:08:04.874Z,97522.00
2023-05-22T13:10:32.560Z,97523.00
2023-05-22T13:13:01.578Z,97513.00
2023-05-22T13:15:29.560Z,97515.00
2023-05-22T13:17:57.308Z,97511.00
2023-05-22T13:20:25.084Z,97501.00
2023-05-22T13:22:52.776Z,97514.00
2023-05-22T13:25:20.525Z,97510.00
2023-05-22T13:27:48.215Z,97499.00
2023-05-22T13:30:17.292Z,97497.00
2023-05-22T13:32:44.985Z,97512.00
2023-05-22T13:35:13.202Z,97500.00
2023-05-22T13:37:41.145Z,97497.00
2023-05-22T13:40:10.270Z,97495.00
2023-05-22T13:42:38.407Z,97495.00
2023-05-22T13:45:07.074Z,97505.00
2023-05-22T13:47:36.361Z,97498.00
2023-05-22T13:50:05.257Z,97494.00
2023-05-22T13:52:32.978Z,97495.00
2023-05-22T13:55:01.222Z,97494.00
2023-05-22T13:57:28.857Z,97487.00
2023-05-22T13:59:56.605Z,97489.00
2023-05-22T14:02:25.185Z,97493.00
2023-05-22T14:04:54.295Z,97490.00
2023-05-22T14:07:21.971Z,97483.00
2023-05-22T14:09:49.785Z,97481.00
2023-05-22T14:12:17.486Z,97489.00
2023-05-22T14:14:45.169Z,97480.00
2023-05-22T14:17:12.848Z,97480.00
2023-05-22T14:19:40.586Z,97473.00
2023-05-22T14:22:09.596Z,97471.00
2023-05-22T14:24:37.289Z,97473.00
2023-05-22T14:27:05.454Z,97468.00
2023-05-22T14:29:33.176Z,97472.00
2023-05-22T14:32:04.142Z,97467.00
2023-05-22T14:34:32.318Z,97471.00
2023-05-22T14:37:00.013Z,97471.00
2023-05-22T14:39:29.017Z,97464.00
2023-05-22T14:41:56.908Z,97462.00
2023-05-22T14:44:24.551Z,97465.00
2023-05-22T14:46:53.500Z,97467.00
2023-05-22T14:49:21.249Z,97473.00
2023-05-22T14:51:49.097Z,97467.00
2023-05-22T14:54:18.967Z,97460.00
2023-05-22T14:56:48.041Z,97471.00
2023-05-22T14:59:16.017Z,97465.00
2023-05-22T15:01:44.628Z,97464.00
2023-05-22T15:04:12.457Z,97459.00
2023-05-22T15:06:40.150Z,97461.00
2023-05-22T15:09:07.958Z,97457.00
2023-05-22T15:11:35.622Z,97455.00
2023-05-22T15:14:04.652Z,97450.00
2023-05-22T15:16:32.327Z,97443.00
2023-05-22T15:19:00.175Z,97439.00
2023-05-22T15:21:27.986Z,97437.00
2023-05-22T15:23:55.638Z,97434.00
2023-05-22T15:26:23.319Z,97439.00
2023-05-22T15:28:51.192Z,97436.00
2023-05-22T15:31:20.322Z,97433.00
2023-05-22T15:33:47.993Z,97433.00
2023-05-22T15:36:15.906Z,97428.00
2023-05-22T15:38:43.784Z,97432.00
2023-05-22T15:41:11.466Z,97432.00
2023-05-22T15:43:39.189Z,97430.00
2023-05-22T15:46:07.034Z,97437.00
2023-05-22T15:48:36.199Z,97433.00
2023-05-22T15:51:03.965Z,97434.00
2023-05-22T15:53:31.676Z,97433.00
2023-05-22T15:55:59.419Z,97440.00
2023-05-22T15:58:28.452Z,97434.00
2023-05-22T16:00:56.261Z,97435.00
2023-05-22T16:03:24.214Z,97431.00
2023-05-22T16:05:53.308Z,97441.00
2023-05-22T16:08:20.952Z,97430.00
2023-05-22T16:10:48.665Z,97431.00
2023-05-22T16:13:16.646Z,97442.00
2023-05-22T16:15:45.046Z,97435.00
2023-05-22T16:18:12.939Z,97440.00
2023-05-22T16:20:40.760Z,97435.00
2023-05-22T16:23:09.882Z,97443.00
2023-05-22T16:25:37.834Z,97442.00
2023-05-22T16:28:06.494Z,97442.00
2023-05-22T16:30:34.182Z,97433.00
2023-05-22T16:33:01.915Z,97429.00
2023-05-22T16:35:30.180Z,97435.00
2023-05-22T16:37:57.829Z,97430.00
2023-05-22T16:40:26.876Z,97433.00
2023-05-22T16:42:54.640Z,97431.00
2023-05-22T16:45:23.138Z,97432.00
2023-05-22T16:47:50.969Z,97439.00
2023-05-22T16:50:18.897Z,97441.00
2023-05-22T16:52:46.560Z,97442.00
2023-05-22T16:55:14.245Z,97445.00
2023-05-22T16:57:43.726Z,97446.00
2023-05-22T17:00:12.151Z,97449.00
2023-05-22T17:02:40.053Z,97455.00
2023-05-22T17:05:08.648Z,97445.00
2023-05-22T17:07:36.693Z,97455.00
2023-05-22T17:10:04.602Z,97444.00
2023-05-22T17:12:32.340Z,97440.00
2023-05-22T17:15:01.329Z,97447.00
2023-05-22T17:17:29.036Z,97442.00
2023-05-22T17:19:56.746Z,97439.00
2023-05-22T17:22:24.424Z,97451.00
2023-05-22T17:24:52.712Z,97440.00
2023-05-22T17:27:34.399Z,97440.00
2023-05-22T17:30:05.975Z,97436.00
2023-05-22T17:32:34.032Z,97440.00
2023-05-22T17:35:02.731Z,97447.00
2023-05-22T17:37:30.556Z,97446.00
2023-05-22T17:39:58.277Z,97447.00
2023-05-22T17:42:26.068Z,97442.00
2023-05-22T17:44:53.766Z,97454.00
2023-05-22T17:47:22.923Z,97454.00
2023-05-22T17:49:50.664Z,97448.00
2023-05-22T17:52:18.367Z,97448.00
2023-05-22T17:54:47.034Z,97451.00
2023-05-22T17:57:14.668Z,97453.00
2023-05-22T17:59:42.390Z,97445.00
2023-05-22T18:02:10.048Z,97445.00
2023-05-22T18:04:39.077Z,97447.00
2023-05-22T18:07:06.990Z,97444.00
2023-05-22T18:09:34.756Z,97453.00
2023-05-22T18:12:04.104Z,97448.00
2023-05-22T18:14:31.880Z,97451.00
2023-05-22T18:16:59.770Z,97454.00
2023-05-22T18:19:27.527Z,97445.00
2023-05-22T18:21:56.724Z,97453.00
2023-05-22T18:24:25.272Z,97449.00
2023-05-22T18:26:54.700Z,97458.00
2023-05-22T18:29:22.394Z,97454.00
2023-05-22T18:31:50.138Z,97460.00
2023-05-22T18:34:17.842Z,97458.00
2023-05-22T18:36:46.201Z,97463.00
2023-05-22T18:39:15.266Z,97468.00
2023-05-22T18:41:42.933Z,97475.00
2023-05-22T18:44:10.630Z,97479.00
2023-05-22T18:46:38.352Z,97474.00
2023-05-22T18:49:06.198Z,97480.00
2023-05-22T18:51:33.934Z,97486.00
2023-05-22T18:54:01.647Z,97482.00
2023-05-22T18:56:31.042Z,97488.00
2023-05-22T18:58:58.710Z,97489.00
2023-05-22T19:01:26.440Z,97488.00
2023-05-22T19:03:54.171Z,97493.00
2023-05-22T19:06:23.078Z,97485.00
2023-05-22T19:08:50.751Z,97493.00
2023-05-22T19:11:18.529Z,97491.00
2023-05-22T19:13:47.574Z,97495.00
2023-05-22T19:16:15.532Z,97510.00
2023-05-22T19:18:43.446Z,97510.00
2023-05-22T19:21:11.191Z,97510.00
2023-05-22T19:23:39.017Z,97528.00
2023-05-22T19:26:06.867Z,97531.00
2023-05-22T19:28:34.640Z,97528.00
2023-05-22T19:31:04.572Z,97530.00
2023-05-22T19:33:32.407Z,97529.00
2023-05-22T19:36:00.419Z,97530.00
2023-05-22T19:38:28.127Z,97537.00
2023-05-22T19:40:55.844Z,97535.00
2023-05-22T19:43:23.680Z,97539.00
2023-05-22T19:45:51.506Z,97542.00
2023-05-22T19:48:21.416Z,97547.00
2023-05-22T19:50:49.216Z,97542.00
2023-05-22T19:53:17.046Z,97545.00
2023-05-22T19:55:44.749Z,97545.00
2023-05-22T19:58:12.449Z,97549.00
2023-05-22T20:00:41.117Z,97545.00
2023-05-22T20:03:09.170Z,97544.00
2023-05-22T20:05:38.650Z,97544.00
2023-05-22T20:08:07.527Z,97549.00
2023-05-22T20:10:35.292Z,97552.00
2023-05-22T20:13:04.777Z,97547.00
2023-05-22T20:15:33.064Z,97553.00
2023-05-22T20:18:02.509Z,97548.00
2023-05-22T20:20:30.379Z,97557.00
2023-05-22T20:22:59.580Z,97547.00
2023-05-22T20:25:27.328Z,97562.00
2023-05-22T20:27:55.300Z,97560.00
2023-05-22T20:30:23.018Z,97561.00
2023-05-22T20:32:51.915Z,97561.00
2023-05-22T20:35:20.188Z,97562.00
2023-05-22T20:37:47.970Z,97563.00
2023-05-22T20:40:17.421Z,97571.00
2023-05-22T20:42:46.143Z,97570.00
2023-05-22T20:45:16.058Z,97572.00
2023-05-22T20:47:44.297Z,97570.00
2023-05-22T20:50:12.264Z,97574.00
2023-05-22T20:52:39.934Z,97572.00
2023-05-22T20:55:08.657Z,97580.00
2023-05-22T20:57:37.672Z,97578.00
2023-05-22T21:00:08.795Z,97579.00
2023-05-22T21:02:36.801Z,97577.00
2023-05-22T21:05:04.678Z,97575.00
2023-05-22T21:07:32.344Z,97577.00
2023-05-22T21:09:59.973Z,97579.00
2023-05-22T21:12:28.045Z,97587.00
2023-05-22T21:14:57.164Z,97592.00
2023-05-22T21:17:25.403Z,97597.00
2023-05-22T21:19:53.203Z,97586.00
2023-05-22T21:22:20.943Z,97591.00
2023-05-22T21:24:49.048Z,97589.00
2023-05-22T21:27:16.712Z,97585.00
2023-05-22T21:29:44.409Z,97589.00
2023-05-22T21:32:13.440Z,97596.00
2023-05-22T21:34:41.112Z,97596.00
2023-05-22T21:37:09.138Z,97596.00
2023-05-22T21:39:36.821Z,97588.00
2023-05-22T21:42:04.638Z,97583.00
2023-05-22T21:44:32.287Z,97582.00
2023-05-22T21:47:00.267Z,97575.00
2023-05-22T21:49:29.332Z,97575.00
2023-05-22T21:51:57.606Z,97585.00
2023-05-22T21:54:25.301Z,97582.00
2023-05-22T21:56:53.316Z,97568.00
2023-05-22T21:59:21.093Z,97571.00
2023-05-22T22:01:49.451Z,97572.00
2023-05-22T22:04:17.182Z,97566.00
2023-05-22T22:06:46.584Z,97562.00
2023-05-22T22:09:14.343Z,97565.00
2023-05-22T22:11:42.429Z,97564.00
2023-05-22T22:14:10.061Z,97566.00
2023-05-22T22:16:37.786Z,97561.00
2023-05-22T22:19:06.036Z,97568.00
2023-05-22T22:21:34.361Z,97569.00
2023-05-22T22:24:03.623Z,97578.00
2023-05-22T22:26:32.202Z,97572.00
2023-05-22T22:29:00.145Z,97566.00
2023-05-22T22:31:27.979Z,97567.00
2023-05-22T22:33:55.934Z,97564.00
2023-05-22T22:36:24.272Z,97564.00
2023-05-22T22:38:52.034Z,97566.00
2023-05-22T22:41:21.436Z,97562.00
2023-05-22T22:43:49.111Z,97561.00
2023-05-22T22:46:16.871Z,97567.00
2023-05-22T22:48:44.600Z,97569.00
2023-05-22T22:51:12.280Z,97569.00
2023-05-22T22:53:40.137Z,97579.00
2023-05-22T22:56:07.877Z,97579.00
2023-05-22T22:58:36.941Z,97579.00
2023-05-22T23:01:05.197Z,97582.00
2023-05-22T23:03:33.726Z,97579.00
2023-05-22T23:06:01.437Z,97588.00
2023-05-22T23:08:29.113Z,97587.00
2023-05-22T23:10:56.740Z,97587.00
2023-05-22T23:13:24.481Z,97591.00
2023-05-22T23:15:53.576Z,97588.00
2023-05-22T23:18:22.302Z,97593.00
2023-05-22T23:20:50.179Z,97597.00
2023-05-22T23:23:17.884Z,97596.00
2023-05-22T23:25:45.605Z,97601.00
2023-05-22T23:28:13.302Z,97609.00
2023-05-22T23:30:40.983Z,97607.00
2023-05-22T23:33:10.276Z,97603.00
2023-05-22T23:35:38.124Z,97610.00
2023-05-22T23:38:05.850Z,97615.00
2023-05-22T23:40:33.554Z,97611.00
2023-05-22T23:43:01.364Z,97617.00
2023-05-22T23:45:29.037Z,97610.00
2023-05-22T23:47:56.738Z,97618.00
2023-05-22T23:50:25.952Z,97618.00
2023-05-22T23:52:54.097Z,97619.00
2023-05-22T23:55:21.817Z,97614.00
2023-05-22T23:57:49.971Z,97617.00
